sensor_id;sensor_type;location;lat;lon;timestamp;P1;durP1;ratioP1;P2;durP2;ratioP2
59986;SDS011;46181;51.498;5.392;2022-08-01T00:04:05;10.516;;;6.58;;
59986;SDS011;46181;51.498;5.392;2022-08-01T00:08:35;11.548;;;6.340001;;
59986;SDS011;46181;51.498;5.392;2022-08-01T00:13:05;11.02;;;6.748;;
59986;SDS011;46181;51.498;5.392;2022-08-01T00:17:35;11.044;;;6.575999;;
59986;SDS011;46181;51.498;5.392;2022-08-01T00:22:05;13.468;;;6.896;;
59986;SDS011;46181;51.498;5.392;2022-08-01T00:26:35;13.272;;;7.156;;
59986;SDS011;46181;51.498;5.392;2022-08-01T00:31:05;12.924;;;7.324;;
59986;SDS011;46181;51.498;5.392;2022-08-01T00:35:35;13.104;;;7.212;;
59986;SDS011;46181;51.498;5.392;2022-08-01T00:40:06;10.432;;;6.948;;
59986;SDS011;46181;51.498;5.392;2022-08-01T00:44:35;12.08;;;7.539999;;
59986;SDS011;46181;51.498;5.392;2022-08-01T00:49:05;14.764;;;7.772001;;
59986;SDS011;46181;51.498;5.392;2022-08-01T00:53:35;14.2;;;8.284;;
59986;SDS011;46181;51.498;5.392;2022-08-01T00:58:05;13.14;;;8.684;;
59986;SDS011;46181;51.498;5.392;2022-08-01T01:02:35;17.58;;;9.211998;;
59986;SDS011;46181;51.498;5.392;2022-08-01T01:07:06;16.496;;;8.744;;
59986;SDS011;46181;51.498;5.392;2022-08-01T01:11:36;16.848;;;9.147999;;
59986;SDS011;46181;51.498;5.392;2022-08-01T01:16:06;16.292;;;9.003999;;
59986;SDS011;46181;51.498;5.392;2022-08-01T01:20:36;20.016;;;9.295999;;
59986;SDS011;46181;51.498;5.392;2022-08-01T01:29:35;18.652;;;9.988001;;
59986;SDS011;46181;51.498;5.392;2022-08-01T01:34:05;17.652;;;9.500001;;
59986;SDS011;46181;51.498;5.392;2022-08-01T01:38:36;16.436;;;9.316;;
59986;SDS011;46181;51.498;5.392;2022-08-01T01:43:05;12.956;;;8.096001;;
59986;SDS011;46181;51.498;5.392;2022-08-01T01:47:35;17.188;;;8.952;;
59986;SDS011;46181;51.498;5.392;2022-08-01T01:52:05;14.084;;;8.276;;
59986;SDS011;46181;51.498;5.392;2022-08-01T01:56:35;14.952;;;7.776001;;
59986;SDS011;46181;51.498;5.392;2022-08-01T02:01:05;13.496;;;7.52;;
59986;SDS011;46181;51.498;5.392;2022-08-01T02:05:35;12.532;;;7.644001;;
59986;SDS011;46181;51.498;5.392;2022-08-01T02:10:05;13.076;;;7.856;;
59986;SDS011;46181;51.498;5.392;2022-08-01T02:14:35;11.576;;;7.596;;
59986;SDS011;46181;51.498;5.392;2022-08-01T02:19:05;15.152;;;7.484002;;
59986;SDS011;46181;51.498;5.392;2022-08-01T02:23:35;15.464;;;8.235998;;
59986;SDS011;46181;51.498;5.392;2022-08-01T02:28:06;14.924;;;8.651999;;
59986;SDS011;46181;51.498;5.392;2022-08-01T02:32:36;14.836;;;8.464001;;
59986;SDS011;46181;51.498;5.392;2022-08-01T02:37:05;13.592;;;8.372;;
59986;SDS011;46181;51.498;5.392;2022-08-01T02:41:36;14.78;;;8.06;;
59986;SDS011;46181;51.498;5.392;2022-08-01T02:46:06;15.72;;;7.976002;;
59986;SDS011;46181;51.498;5.392;2022-08-01T02:50:35;13.492;;;8.208;;
59986;SDS011;46181;51.498;5.392;2022-08-01T02:55:06;16.5;;;8.292001;;
59986;SDS011;46181;51.498;5.392;2022-08-01T02:59:36;14.896;;;7.868;;
59986;SDS011;46181;51.498;5.392;2022-08-01T03:04:05;13.928;;;7.904001;;
59986;SDS011;46181;51.498;5.392;2022-08-01T03:08:35;15.696;;;8.476001;;
59986;SDS011;46181;51.498;5.392;2022-08-01T03:13:06;14.244;;;8.836;;
59986;SDS011;46181;51.498;5.392;2022-08-01T03:17:35;16.912;;;9.412;;
59986;SDS011;46181;51.498;5.392;2022-08-01T03:22:05;16.492;;;8.980002;;
59986;SDS011;46181;51.498;5.392;2022-08-01T03:26:36;13.58;;;8.416;;
59986;SDS011;46181;51.498;5.392;2022-08-01T03:31:05;17.796;;;8.776001;;
59986;SDS011;46181;51.498;5.392;2022-08-01T03:35:37;15.356;;;8.844001;;
59986;SDS011;46181;51.498;5.392;2022-08-01T03:40:07;17.228;;;9.368;;
59986;SDS011;46181;51.498;5.392;2022-08-01T03:44:35;16.008;;;9.176;;
59986;SDS011;46181;51.498;5.392;2022-08-01T03:49:06;15.808;;;9.428;;
59986;SDS011;46181;51.498;5.392;2022-08-01T03:53:35;16.028;;;9.564;;
59986;SDS011;46181;51.498;5.392;2022-08-01T03:58:05;16.616;;;8.755999;;
59986;SDS011;46181;51.498;5.392;2022-08-01T04:02:35;15.636;;;9.248;;
59986;SDS011;46181;51.498;5.392;2022-08-01T04:07:05;16.32001;;;9.259998;;
59986;SDS011;46181;51.498;5.392;2022-08-01T04:11:35;14.612;;;8.996;;
59986;SDS011;46181;51.498;5.392;2022-08-01T04:16:05;17.22;;;9.4;;
59986;SDS011;46181;51.498;5.392;2022-08-01T04:20:35;16.96;;;9.443998;;
59986;SDS011;46181;51.498;5.392;2022-08-01T04:25:07;16.896;;;8.803999;;
59986;SDS011;46181;51.498;5.392;2022-08-01T04:29:35;14.956;;;8.408;;
59986;SDS011;46181;51.498;5.392;2022-08-01T04:34:05;16.072;;;9.124;;
59986;SDS011;46181;51.498;5.392;2022-08-01T04:38:35;14.988;;;8.363999;;
59986;SDS011;46181;51.498;5.392;2022-08-01T04:43:05;15.284;;;9.171999;;
59986;SDS011;46181;51.498;5.392;2022-08-01T04:47:35;16.308;;;9.367999;;
59986;SDS011;46181;51.498;5.392;2022-08-01T04:52:05;17.652;;;9.223998;;
59986;SDS011;46181;51.498;5.392;2022-08-01T04:56:35;20.496;;;9.224001;;
59986;SDS011;46181;51.498;5.392;2022-08-01T05:01:05;15.892;;;8.74;;
59986;SDS011;46181;51.498;5.392;2022-08-01T05:05:35;14.984;;;8.36;;
59986;SDS011;46181;51.498;5.392;2022-08-01T05:10:05;16.124;;;8.283999;;
59986;SDS011;46181;51.498;5.392;2022-08-01T05:14:35;14.864;;;8.556001;;
59986;SDS011;46181;51.498;5.392;2022-08-01T05:19:05;18.652;;;7.836001;;
59986;SDS011;46181;51.498;5.392;2022-08-01T05:23:35;12.404;;;8.108001;;
59986;SDS011;46181;51.498;5.392;2022-08-01T05:28:05;17.02;;;8.243999;;
59986;SDS011;46181;51.498;5.392;2022-08-01T05:32:35;11.188;;;6.420001;;
59986;SDS011;46181;51.498;5.392;2022-08-01T05:37:05;10.568;;;6.384001;;
59986;SDS011;46181;51.498;5.392;2022-08-01T05:41:35;11.232;;;6.240001;;
59986;SDS011;46181;51.498;5.392;2022-08-01T05:46:05;9.551999;;;5.231999;;
59986;SDS011;46181;51.498;5.392;2022-08-01T05:50:36;9.02;;;4.820001;;
59986;SDS011;46181;51.498;5.392;2022-08-01T05:55:06;10.62;;;5.12;;
59986;SDS011;46181;51.498;5.392;2022-08-01T05:59:35;9.775999;;;5.300001;;
59986;SDS011;46181;51.498;5.392;2022-08-01T06:04:05;8.524001;;;4.936;;
59986;SDS011;46181;51.498;5.392;2022-08-01T06:08:35;7.315999;;;4.364;;
59986;SDS011;46181;51.498;5.392;2022-08-01T06:13:05;7.192001;;;4.460001;;
59986;SDS011;46181;51.498;5.392;2022-08-01T06:17:35;7.604;;;4.099999;;
59986;SDS011;46181;51.498;5.392;2022-08-01T06:22:05;8.099999;;;4.547999;;
59986;SDS011;46181;51.498;5.392;2022-08-01T06:26:35;8.168;;;4.243999;;
59986;SDS011;46181;51.498;5.392;2022-08-01T06:31:05;7.376001;;;3.988;;
59986;SDS011;46181;51.498;5.392;2022-08-01T06:35:35;7.944;;;3.916;;
59986;SDS011;46181;51.498;5.392;2022-08-01T06:40:06;6.536;;;3.824;;
59986;SDS011;46181;51.498;5.392;2022-08-01T06:44:35;8.207999;;;4.139999;;
59986;SDS011;46181;51.498;5.392;2022-08-01T06:49:05;7.888;;;4.244;;
59986;SDS011;46181;51.498;5.392;2022-08-01T06:53:35;6.515999;;;3.536;;
59986;SDS011;46181;51.498;5.392;2022-08-01T06:58:05;5.472001;;;2.98;;
59986;SDS011;46181;51.498;5.392;2022-08-01T07:02:35;6.044;;;2.924;;
59986;SDS011;46181;51.498;5.392;2022-08-01T07:07:05;6.916001;;;3.312001;;
59986;SDS011;46181;51.498;5.392;2022-08-01T07:11:35;4.632;;;2.572;;
59986;SDS011;46181;51.498;5.392;2022-08-01T07:16:05;4.94;;;2.572;;
59986;SDS011;46181;51.498;5.392;2022-08-01T07:20:35;5.312001;;;2.812;;
59986;SDS011;46181;51.498;5.392;2022-08-01T07:25:06;5.396;;;2.756;;
59986;SDS011;46181;51.498;5.392;2022-08-01T07:29:35;5.924;;;2.2;;
59986;SDS011;46181;51.498;5.392;2022-08-01T07:34:05;4.387999;;;1.332;;
59986;SDS011;46181;51.498;5.392;2022-08-01T07:38:35;3.852;;;1.552;;
59986;SDS011;46181;51.498;5.392;2022-08-01T07:43:05;4.584;;;1.508;;
59986;SDS011;46181;51.498;5.392;2022-08-01T07:47:35;3.428;;;1.236;;
59986;SDS011;46181;51.498;5.392;2022-08-01T07:52:05;1.972;;;1.024;;
59986;SDS011;46181;51.498;5.392;2022-08-01T07:56:35;1.752;;;0.944;;
59986;SDS011;46181;51.498;5.392;2022-08-01T08:01:05;3.168;;;1.1;;
59986;SDS011;46181;51.498;5.392;2022-08-01T08:05:35;2.332;;;0.992;;
59986;SDS011;46181;51.498;5.392;2022-08-01T08:10:06;2.24;;;1.076;;
59986;SDS011;46181;51.498;5.392;2022-08-01T08:14:35;2.496;;;1.124;;
59986;SDS011;46181;51.498;5.392;2022-08-01T08:19:05;3.368;;;1.524;;
59986;SDS011;46181;51.498;5.392;2022-08-01T08:23:35;2.984;;;1.5;;
59986;SDS011;46181;51.498;5.392;2022-08-01T08:28:05;2.44;;;1.384;;
59986;SDS011;46181;51.498;5.392;2022-08-01T08:32:35;4.9;;;2.464;;
59986;SDS011;46181;51.498;5.392;2022-08-01T08:37:05;3.176;;;2.56;;
59986;SDS011;46181;51.498;5.392;2022-08-01T08:41:35;2.324;;;1.468;;
59986;SDS011;46181;51.498;5.392;2022-08-01T08:46:05;2.2;;;1.1;;
59986;SDS011;46181;51.498;5.392;2022-08-01T08:50:35;2.416;;;1.1;;
59986;SDS011;46181;51.498;5.392;2022-08-01T08:55:06;2.36;;;1.068;;
59986;SDS011;46181;51.498;5.392;2022-08-01T08:59:35;2.316;;;0.928;;
59986;SDS011;46181;51.498;5.392;2022-08-01T09:04:05;1.952;;;0.916;;
59986;SDS011;46181;51.498;5.392;2022-08-01T09:08:36;1.44;;;0.776;;
59986;SDS011;46181;51.498;5.392;2022-08-01T09:13:07;3.543999;;;0.7;;
59986;SDS011;46181;51.498;5.392;2022-08-01T09:17:42;1.996;;;0.884;;
59986;SDS011;46181;51.498;5.392;2022-08-01T09:22:06;1.912;;;0.736;;
59986;SDS011;46181;51.498;5.392;2022-08-01T09:26:35;2.14;;;0.716;;
59986;SDS011;46181;51.498;5.392;2022-08-01T09:31:09;1.164;;;0.5;;
59986;SDS011;46181;51.498;5.392;2022-08-01T09:35:36;1.06;;;0.6;;
59986;SDS011;46181;51.498;5.392;2022-08-01T09:40:06;2.156;;;0.812;;
59986;SDS011;46181;51.498;5.392;2022-08-01T09:44:42;1.516;;;0.7;;
59986;SDS011;46181;51.498;5.392;2022-08-01T09:49:05;0.784;;;0.5;;
59986;SDS011;46181;51.498;5.392;2022-08-01T09:53:46;1.496;;;0.628;;
59986;SDS011;46181;51.498;5.392;2022-08-01T09:58:05;1.364;;;0.608;;
59986;SDS011;46181;51.498;5.392;2022-08-01T10:02:36;4.46;;;0.8;;
59986;SDS011;46181;51.498;5.392;2022-08-01T10:07:08;2.352;;;0.7;;
59986;SDS011;46181;51.498;5.392;2022-08-01T10:11:35;1.724;;;0.672;;
59986;SDS011;46181;51.498;5.392;2022-08-01T10:16:06;3.52;;;1.512;;
59986;SDS011;46181;51.498;5.392;2022-08-01T10:20:35;1.952;;;0.716;;
59986;SDS011;46181;51.498;5.392;2022-08-01T10:25:06;1.992;;;0.728;;
59986;SDS011;46181;51.498;5.392;2022-08-01T10:29:37;1.276;;;0.7;;
59986;SDS011;46181;51.498;5.392;2022-08-01T10:34:05;2.076;;;1.148;;
59986;SDS011;46181;51.498;5.392;2022-08-01T10:38:36;2.671999;;;1.156;;
59986;SDS011;46181;51.498;5.392;2022-08-01T10:43:05;2.068;;;1.208;;
59986;SDS011;46181;51.498;5.392;2022-08-01T10:47:37;3.024001;;;1.144;;
59986;SDS011;46181;51.498;5.392;2022-08-01T10:52:05;2.248;;;1;;
59986;SDS011;46181;51.498;5.392;2022-08-01T10:56:42;1.744;;;1;;
59986;SDS011;46181;51.498;5.392;2022-08-01T11:05:35;2.164;;;0.744;;
59986;SDS011;46181;51.498;5.392;2022-08-01T11:10:08;2.016;;;0.856;;
59986;SDS011;46181;51.498;5.392;2022-08-01T11:15:15;2.008;;;0.996;;
59986;SDS011;46181;51.498;5.392;2022-08-01T11:19:06;2.264;;;0.912;;
59986;SDS011;46181;51.498;5.392;2022-08-01T11:23:35;1.768;;;0.8;;
59986;SDS011;46181;51.498;5.392;2022-08-01T11:32:38;1.2;;;0.6;;
59986;SDS011;46181;51.498;5.392;2022-08-01T11:41:35;1.54;;;0.672;;
59986;SDS011;46181;51.498;5.392;2022-08-01T11:46:05;2.108;;;0.7;;
59986;SDS011;46181;51.498;5.392;2022-08-01T11:50:38;1.612;;;0.732;;
59986;SDS011;46181;51.498;5.392;2022-08-01T11:55:08;2.312;;;0.924;;
59986;SDS011;46181;51.498;5.392;2022-08-01T11:59:39;2.044;;;0.648;;
59986;SDS011;46181;51.498;5.392;2022-08-01T12:04:05;2.503999;;;1.212;;
59986;SDS011;46181;51.498;5.392;2022-08-01T12:08:35;3.248;;;1.104;;
59986;SDS011;46181;51.498;5.392;2022-08-01T12:13:06;2.524;;;0.816;;
59986;SDS011;46181;51.498;5.392;2022-08-01T12:17:36;4.108;;;0.764;;
59986;SDS011;46181;51.498;5.392;2022-08-01T12:22:12;2.048;;;0.664;;
59986;SDS011;46181;51.498;5.392;2022-08-01T12:26:42;1.992;;;0.7;;
59986;SDS011;46181;51.498;5.392;2022-08-01T12:31:05;2.704;;;0.816;;
59986;SDS011;46181;51.498;5.392;2022-08-01T12:35:36;2.296;;;0.9;;
59986;SDS011;46181;51.498;5.392;2022-08-01T12:40:06;1.832;;;0.816;;
59986;SDS011;46181;51.498;5.392;2022-08-01T12:44:36;1.648;;;0.756;;
59986;SDS011;46181;51.498;5.392;2022-08-01T12:49:05;3.008;;;0.908;;
59986;SDS011;46181;51.498;5.392;2022-08-01T12:53:36;2.672;;;1.064;;
59986;SDS011;46181;51.498;5.392;2022-08-01T12:58:08;2.036;;;0.952;;
59986;SDS011;46181;51.498;5.392;2022-08-01T13:02:36;3.576;;;0.972;;
59986;SDS011;46181;51.498;5.392;2022-08-01T13:07:05;2.992001;;;1.064;;
59986;SDS011;46181;51.498;5.392;2022-08-01T13:11:36;3.492;;;1.196;;
59986;SDS011;46181;51.498;5.392;2022-08-01T13:16:09;2.856;;;1.264;;
59986;SDS011;46181;51.498;5.392;2022-08-01T13:20:35;2.86;;;1.256;;
59986;SDS011;46181;51.498;5.392;2022-08-01T13:25:15;4.052001;;;1.424;;
59986;SDS011;46181;51.498;5.392;2022-08-01T13:29:36;3.804;;;1.584;;
59986;SDS011;46181;51.498;5.392;2022-08-01T13:34:06;3.288;;;1.6;;
59986;SDS011;46181;51.498;5.392;2022-08-01T13:38:35;3.160001;;;1.56;;
59986;SDS011;46181;51.498;5.392;2022-08-01T13:43:06;4.671999;;;1.508;;
59986;SDS011;46181;51.498;5.392;2022-08-01T13:47:35;3.136;;;1.508;;
59986;SDS011;46181;51.498;5.392;2022-08-01T13:52:05;3.404;;;1.308;;
59986;SDS011;46181;51.498;5.392;2022-08-01T13:56:36;3.092;;;1.384;;
59986;SDS011;46181;51.498;5.392;2022-08-01T14:01:05;5.599999;;;1.656;;
59986;SDS011;46181;51.498;5.392;2022-08-01T14:05:36;4.824;;;1.376;;
59986;SDS011;46181;51.498;5.392;2022-08-01T14:10:06;4.224001;;;1.444;;
59986;SDS011;46181;51.498;5.392;2022-08-01T14:14:35;3.14;;;1.132;;
59986;SDS011;46181;51.498;5.392;2022-08-01T14:19:05;2.892;;;1.308;;
59986;SDS011;46181;51.498;5.392;2022-08-01T14:23:35;3.884001;;;1.316;;
59986;SDS011;46181;51.498;5.392;2022-08-01T14:28:06;4.023999;;;1.2;;
59986;SDS011;46181;51.498;5.392;2022-08-01T14:32:36;5.096;;;1.5;;
59986;SDS011;46181;51.498;5.392;2022-08-01T14:37:05;5.296;;;1.664;;
59986;SDS011;46181;51.498;5.392;2022-08-01T14:41:35;5.712;;;1.384;;
59986;SDS011;46181;51.498;5.392;2022-08-01T14:46:05;3.384;;;1.3;;
59986;SDS011;46181;51.498;5.392;2022-08-01T14:50:35;2.988;;;1.264;;
59986;SDS011;46181;51.498;5.392;2022-08-01T14:55:06;5.607999;;;1.2;;
59986;SDS011;46181;51.498;5.392;2022-08-01T14:59:36;6.532001;;;1.308;;
59986;SDS011;46181;51.498;5.392;2022-08-01T15:04:05;3.308;;;1.084;;
59986;SDS011;46181;51.498;5.392;2022-08-01T15:08:35;4.692;;;1.264;;
59986;SDS011;46181;51.498;5.392;2022-08-01T15:13:05;5.288001;;;1.444;;
59986;SDS011;46181;51.498;5.392;2022-08-01T15:17:35;4.068;;;1.472;;
59986;SDS011;46181;51.498;5.392;2022-08-01T15:22:05;3.292;;;1.18;;
59986;SDS011;46181;51.498;5.392;2022-08-01T15:26:35;5.307999;;;1.552;;
59986;SDS011;46181;51.498;5.392;2022-08-01T15:31:05;3.944;;;1.264;;
59986;SDS011;46181;51.498;5.392;2022-08-01T15:35:36;4.303999;;;1.208;;
59986;SDS011;46181;51.498;5.392;2022-08-01T15:40:07;4.628;;;1.208;;
59986;SDS011;46181;51.498;5.392;2022-08-01T15:44:36;4.42;;;1.116;;
59986;SDS011;46181;51.498;5.392;2022-08-01T15:49:06;4.012;;;1.216;;
59986;SDS011;46181;51.498;5.392;2022-08-01T15:53:36;5.532;;;1.3;;
59986;SDS011;46181;51.498;5.392;2022-08-01T15:58:06;3.468;;;1.34;;
59986;SDS011;46181;51.498;5.392;2022-08-01T16:02:35;3.796;;;1.2;;
59986;SDS011;46181;51.498;5.392;2022-08-01T16:07:06;4.152001;;;1.3;;
59986;SDS011;46181;51.498;5.392;2022-08-01T16:11:35;4.924;;;1.384;;
59986;SDS011;46181;51.498;5.392;2022-08-01T16:16:06;4.936;;;1.276;;
59986;SDS011;46181;51.498;5.392;2022-08-01T16:20:36;4.352;;;1.192;;
59986;SDS011;46181;51.498;5.392;2022-08-01T16:25:06;7.084;;;1.692;;
59986;SDS011;46181;51.498;5.392;2022-08-01T16:29:36;4.012001;;;1.304;;
59986;SDS011;46181;51.498;5.392;2022-08-01T16:34:06;4.4;;;1.396;;
59986;SDS011;46181;51.498;5.392;2022-08-01T16:38:36;5.732001;;;1.544;;
59986;SDS011;46181;51.498;5.392;2022-08-01T16:43:06;7.132;;;2.108;;
59986;SDS011;46181;51.498;5.392;2022-08-01T16:47:36;4.644;;;1.332;;
59986;SDS011;46181;51.498;5.392;2022-08-01T16:52:06;6.46;;;1.752;;
59986;SDS011;46181;51.498;5.392;2022-08-01T16:56:36;5.880001;;;1.344;;
59986;SDS011;46181;51.498;5.392;2022-08-01T17:01:06;6.332;;;1.568;;
59986;SDS011;46181;51.498;5.392;2022-08-01T17:05:36;3.24;;;1.124;;
59986;SDS011;46181;51.498;5.392;2022-08-01T17:10:07;2.9;;;1.088;;
59986;SDS011;46181;51.498;5.392;2022-08-01T17:14:36;4.584;;;1.316;;
59986;SDS011;46181;51.498;5.392;2022-08-01T17:19:06;3.868;;;1;;
59986;SDS011;46181;51.498;5.392;2022-08-01T17:23:36;2.772;;;1.064;;
59986;SDS011;46181;51.498;5.392;2022-08-01T17:28:06;4.936;;;1.972001;;
59986;SDS011;46181;51.498;5.392;2022-08-01T17:32:36;3.268;;;1.164;;
59986;SDS011;46181;51.498;5.392;2022-08-01T17:37:06;2.308;;;0.9;;
59986;SDS011;46181;51.498;5.392;2022-08-01T17:41:36;3.223999;;;1.092;;
59986;SDS011;46181;51.498;5.392;2022-08-01T17:46:08;2.884001;;;1.016;;
59986;SDS011;46181;51.498;5.392;2022-08-01T17:50:36;7.424;;;3.392001;;
59986;SDS011;46181;51.498;5.392;2022-08-01T17:55:06;5.244;;;1.972;;
59986;SDS011;46181;51.498;5.392;2022-08-01T17:59:36;3.38;;;1.66;;
59986;SDS011;46181;51.498;5.392;2022-08-01T18:04:06;2.344;;;0.868;;
59986;SDS011;46181;51.498;5.392;2022-08-01T18:08:36;9.932;;;3.336;;
59986;SDS011;46181;51.498;5.392;2022-08-01T18:13:06;4.112;;;1.224;;
59986;SDS011;46181;51.498;5.392;2022-08-01T18:17:36;3.876001;;;1.184;;
59986;SDS011;46181;51.498;5.392;2022-08-01T18:22:06;2.336;;;0.808;;
59986;SDS011;46181;51.498;5.392;2022-08-01T18:26:36;4.443999;;;1.064;;
59986;SDS011;46181;51.498;5.392;2022-08-01T18:31:06;2.995999;;;0.992;;
59986;SDS011;46181;51.498;5.392;2022-08-01T18:35:36;3.34;;;1.184;;
59986;SDS011;46181;51.498;5.392;2022-08-01T18:40:07;3.924001;;;1.356;;
59986;SDS011;46181;51.498;5.392;2022-08-01T18:44:36;2.524;;;0.852;;
59986;SDS011;46181;51.498;5.392;2022-08-01T18:49:08;6.343999;;;1.264;;
59986;SDS011;46181;51.498;5.392;2022-08-01T18:53:36;2.436;;;0.9;;
59986;SDS011;46181;51.498;5.392;2022-08-01T18:58:06;2.304;;;0.848;;
59986;SDS011;46181;51.498;5.392;2022-08-01T19:02:36;2.976001;;;0.848;;
59986;SDS011;46181;51.498;5.392;2022-08-01T19:07:06;3.791999;;;1;;
59986;SDS011;46181;51.498;5.392;2022-08-01T19:11:36;3.455999;;;0.94;;
59986;SDS011;46181;51.498;5.392;2022-08-01T19:16:06;3.888;;;1.132;;
59986;SDS011;46181;51.498;5.392;2022-08-01T19:20:37;3.444;;;1.252;;
59986;SDS011;46181;51.498;5.392;2022-08-01T19:25:06;4.600001;;;1.528;;
59986;SDS011;46181;51.498;5.392;2022-08-01T19:29:36;3.360001;;;1.1;;
59986;SDS011;46181;51.498;5.392;2022-08-01T19:34:06;4.556001;;;1.392;;
59986;SDS011;46181;51.498;5.392;2022-08-01T19:38:36;2.244;;;1;;
59986;SDS011;46181;51.498;5.392;2022-08-01T19:43:06;4.340001;;;1.08;;
59986;SDS011;46181;51.498;5.392;2022-08-01T19:47:37;3.752;;;0.948;;
59986;SDS011;46181;51.498;5.392;2022-08-01T19:52:06;3.467999;;;0.976;;
59986;SDS011;46181;51.498;5.392;2022-08-01T19:56:40;3.356001;;;0.908;;
59986;SDS011;46181;51.498;5.392;2022-08-01T20:01:06;2.996;;;0.988;;
59986;SDS011;46181;51.498;5.392;2022-08-01T20:05:36;2.431999;;;0.988;;
59986;SDS011;46181;51.498;5.392;2022-08-01T20:10:07;3.952;;;1.184;;
59986;SDS011;46181;51.498;5.392;2022-08-01T20:14:36;4.287999;;;1.328;;
59986;SDS011;46181;51.498;5.392;2022-08-01T20:19:06;3.404001;;;1.248;;
59986;SDS011;46181;51.498;5.392;2022-08-01T20:23:36;3.444;;;1.124;;
59986;SDS011;46181;51.498;5.392;2022-08-01T20:28:06;2.46;;;1.016;;
59986;SDS011;46181;51.498;5.392;2022-08-01T20:32:36;2.648;;;1.228;;
59986;SDS011;46181;51.498;5.392;2022-08-01T20:37:06;4.412;;;1.508;;
59986;SDS011;46181;51.498;5.392;2022-08-01T20:41:36;4.536;;;1.428;;
59986;SDS011;46181;51.498;5.392;2022-08-01T20:46:07;2.692;;;1.252;;
59986;SDS011;46181;51.498;5.392;2022-08-01T20:50:37;4.136;;;1.22;;
59986;SDS011;46181;51.498;5.392;2022-08-01T20:55:06;4.304;;;1.324;;
59986;SDS011;46181;51.498;5.392;2022-08-01T20:59:37;4.899999;;;1.4;;
59986;SDS011;46181;51.498;5.392;2022-08-01T21:04:10;4.911999;;;1.788;;
59986;SDS011;46181;51.498;5.392;2022-08-01T21:08:37;3.296;;;1.528;;
59986;SDS011;46181;51.498;5.392;2022-08-01T21:13:06;3.436;;;1.392;;
59986;SDS011;46181;51.498;5.392;2022-08-01T21:17:40;2.776;;;1.392;;
59986;SDS011;46181;51.498;5.392;2022-08-01T21:22:07;3.532;;;1.356;;
59986;SDS011;46181;51.498;5.392;2022-08-01T21:26:36;4.476;;;1.488;;
59986;SDS011;46181;51.498;5.392;2022-08-01T21:31:06;3.836;;;1.404;;
59986;SDS011;46181;51.498;5.392;2022-08-01T21:35:36;4.476;;;1.364;;
59986;SDS011;46181;51.498;5.392;2022-08-01T21:40:07;4.976;;;1.6;;
59986;SDS011;46181;51.498;5.392;2022-08-01T21:44:36;5.168;;;1.432;;
59986;SDS011;46181;51.498;5.392;2022-08-01T21:49:06;3.264;;;1.4;;
59986;SDS011;46181;51.498;5.392;2022-08-01T21:53:38;4.895999;;;1.832;;
59986;SDS011;46181;51.498;5.392;2022-08-01T21:58:16;5.223999;;;1.216;;
59986;SDS011;46181;51.498;5.392;2022-08-01T22:02:37;3.688;;;1.444;;
59986;SDS011;46181;51.498;5.392;2022-08-01T22:07:06;4.032001;;;1.24;;
59986;SDS011;46181;51.498;5.392;2022-08-01T22:11:36;3.916;;;1.036;;
59986;SDS011;46181;51.498;5.392;2022-08-01T22:16:06;5.024;;;1.344;;
59986;SDS011;46181;51.498;5.392;2022-08-01T22:20:36;3.480001;;;1.096;;
59986;SDS011;46181;51.498;5.392;2022-08-01T22:25:06;3.428001;;;1.456;;
59986;SDS011;46181;51.498;5.392;2022-08-01T22:29:36;5.672001;;;1.452;;
59986;SDS011;46181;51.498;5.392;2022-08-01T22:34:06;3.88;;;1.388;;
59986;SDS011;46181;51.498;5.392;2022-08-01T22:38:36;4.104;;;1.3;;
59986;SDS011;46181;51.498;5.392;2022-08-01T22:43:06;8.476001;;;1.392;;
59986;SDS011;46181;51.498;5.392;2022-08-01T22:47:41;4.9;;;1.452;;
59986;SDS011;46181;51.498;5.392;2022-08-01T22:52:09;4.3;;;1.284;;
59986;SDS011;46181;51.498;5.392;2022-08-01T22:56:38;5.656;;;1.596;;
59986;SDS011;46181;51.498;5.392;2022-08-01T23:01:08;4.055999;;;1.304;;
59986;SDS011;46181;51.498;5.392;2022-08-01T23:05:38;5.536;;;1.544;;
59986;SDS011;46181;51.498;5.392;2022-08-01T23:10:07;2.88;;;1.356;;
59986;SDS011;46181;51.498;5.392;2022-08-01T23:14:36;2.844;;;1.332;;
59986;SDS011;46181;51.498;5.392;2022-08-01T23:19:06;4.988;;;1.352;;
59986;SDS011;46181;51.498;5.392;2022-08-01T23:23:36;3.264;;;1.232;;
59986;SDS011;46181;51.498;5.392;2022-08-01T23:28:06;4.904;;;1.24;;
59986;SDS011;46181;51.498;5.392;2022-08-01T23:32:36;3.936;;;1.416;;
59986;SDS011;46181;51.498;5.392;2022-08-01T23:37:06;5.348;;;1.676;;
59986;SDS011;46181;51.498;5.392;2022-08-01T23:41:36;3.208;;;1.8;;
59986;SDS011;46181;51.498;5.392;2022-08-01T23:46:06;5.567999;;;1.824;;
59986;SDS011;46181;51.498;5.392;2022-08-01T23:50:36;5.14;;;1.66;;
59986;SDS011;46181;51.498;5.392;2022-08-01T23:55:07;5.408;;;1.648001;;
59986;SDS011;46181;51.498;5.392;2022-08-01T23:59:36;5.42;;;1.796;;
